createdAt,value
2023-05-02T00:00:04.152Z,8.46
2023-05-02T00:02:33.485Z,8.43
2023-05-02T00:05:01.235Z,8.46
2023-05-02T00:07:28.802Z,8.40
2023-05-02T00:09:56.485Z,8.38
2023-05-02T00:12:24.125Z,8.37
2023-05-02T00:14:51.560Z,8.35
2023-05-02T00:17:20.070Z,8.34
2023-05-02T00:19:47.994Z,8.30
2023-05-02T00:22:15.560Z,8.33
2023-05-02T00:24:43.090Z,8.32
2023-05-02T00:27:10.774Z,8.26
2023-05-02T00:29:38.925Z,8.22
2023-05-02T00:32:07.201Z,8.19
2023-05-02T00:34:36.091Z,8.15
2023-05-02T00:37:03.521Z,8.11
2023-05-02T00:39:30.971Z,8.09
2023-05-02T00:41:59.122Z,8.05
2023-05-02T00:44:26.986Z,8.10
2023-05-02T00:46:55.440Z,8.08
2023-05-02T00:49:23.048Z,8.05
2023-05-02T00:51:50.634Z,8.03
2023-05-02T00:54:18.681Z,8.07
2023-05-02T00:56:46.958Z,8.14
2023-05-02T00:59:15.168Z,8.15
2023-05-02T01:01:53.613Z,8.08
2023-05-02T01:04:59.514Z,8.04
2023-05-02T01:07:27.177Z,7.93
2023-05-02T01:10:16.495Z,8.00
2023-05-02T01:12:59.652Z,8.02
2023-05-02T01:15:28.547Z,7.95
2023-05-02T01:17:57.671Z,8.02
2023-05-02T01:20:28.751Z,7.94
2023-05-02T01:23:00.906Z,7.95
2023-05-02T01:26:02.435Z,7.89
2023-05-02T01:28:44.375Z,7.92
2023-05-02T01:31:13.535Z,7.93
2023-05-02T01:33:44.895Z,7.95
2023-05-02T01:36:14.902Z,7.94
2023-05-02T01:38:44.630Z,7.90
2023-05-02T01:41:13.144Z,7.87
2023-05-02T01:43:41.632Z,7.80
2023-05-02T01:46:13.810Z,7.90
2023-05-02T01:48:45.754Z,7.82
2023-05-02T01:51:18.784Z,7.82
2023-05-02T01:53:49.708Z,7.83
2023-05-02T01:56:18.827Z,7.86
2023-05-02T01:58:48.632Z,7.87
2023-05-02T02:01:17.890Z,7.85
2023-05-02T02:03:47.258Z,7.82
2023-05-02T02:06:16.210Z,7.87
2023-05-02T02:08:43.873Z,7.88
2023-05-02T02:11:17.185Z,7.81
2023-05-02T02:13:50.329Z,7.82
2023-05-02T02:16:24.820Z,7.79
2023-05-02T02:18:56.606Z,7.83
2023-05-02T02:21:28.756Z,7.85
2023-05-02T02:24:01.886Z,7.80
2023-05-02T02:26:29.862Z,7.85
2023-05-02T02:28:57.430Z,7.77
2023-05-02T02:31:31.071Z,7.82
2023-05-02T02:33:59.171Z,7.81
2023-05-02T02:36:38.860Z,7.70
2023-05-02T02:39:16.705Z,7.62
2023-05-02T02:41:55.928Z,7.43
2023-05-02T02:44:40.189Z,7.44
2023-05-02T02:47:21.177Z,7.35
2023-05-02T02:50:16.693Z,7.41
2023-05-02T02:53:17.310Z,7.46
2023-05-02T02:56:00.749Z,7.48
2023-05-02T02:58:48.082Z,7.40
2023-05-02T03:01:20.599Z,7.49
2023-05-02T03:03:49.871Z,7.46
2023-05-02T03:06:19.179Z,7.52
2023-05-02T03:08:46.765Z,7.58
2023-05-02T03:11:19.148Z,7.52
2023-05-02T03:13:47.776Z,7.57
2023-05-02T03:16:38.121Z,7.68
2023-05-02T03:19:08.677Z,7.65
2023-05-02T03:21:36.705Z,7.73
2023-05-02T03:24:11.742Z,7.67
2023-05-02T03:26:39.660Z,7.73
2023-05-02T03:29:09.985Z,7.81
2023-05-02T03:31:41.206Z,7.75
2023-05-02T03:34:08.821Z,7.79
2023-05-02T03:36:37.754Z,7.85
2023-05-02T03:39:05.242Z,7.82
2023-05-02T03:41:33.080Z,7.82
2023-05-02T03:44:06.393Z,7.81
2023-05-02T03:46:34.224Z,7.75
2023-05-02T03:49:04.369Z,7.77
2023-05-02T03:51:33.960Z,7.75
2023-05-02T03:54:02.931Z,7.72
2023-05-02T03:56:31.136Z,7.77
2023-05-02T03:59:18.699Z,7.76
2023-05-02T04:01:50.580Z,7.90
2023-05-02T04:04:20.379Z,7.85
2023-05-02T04:06:52.111Z,7.79
2023-05-02T04:09:25.094Z,7.85
2023-05-02T04:11:57.796Z,7.77
2023-05-02T04:14:25.773Z,7.79
2023-05-02T04:16:55.520Z,7.76
2023-05-02T04:19:45.894Z,7.86
2023-05-02T04:22:14.194Z,7.95
2023-05-02T04:24:46.842Z,8.02
2023-05-02T04:27:15.628Z,8.11
2023-05-02T04:29:43.816Z,8.12
2023-05-02T04:32:12.892Z,8.20
2023-05-02T04:34:41.977Z,8.11
2023-05-02T04:37:10.366Z,8.08
2023-05-02T04:39:38.658Z,8.03
2023-05-02T04:42:11.964Z,8.10
2023-05-02T04:44:59.096Z,8.09
2023-05-02T04:47:27.079Z,8.09
2023-05-02T04:49:54.583Z,8.17
2023-05-02T04:52:22.186Z,8.08
2023-05-02T04:54:49.816Z,8.20
2023-05-02T04:57:17.310Z,8.27
2023-05-02T04:59:49.242Z,8.32
2023-05-02T05:02:17.291Z,8.35
2023-05-02T05:04:46.005Z,8.33
2023-05-02T05:07:14.007Z,8.41
2023-05-02T05:09:44.024Z,8.40
2023-05-02T05:12:11.597Z,8.41
2023-05-02T05:14:39.642Z,8.48
2023-05-02T05:17:08.373Z,8.53
2023-05-02T05:19:36.283Z,8.65
2023-05-02T05:22:04.333Z,8.72
2023-05-02T05:24:34.018Z,8.76
2023-05-02T05:27:01.515Z,8.83
2023-05-02T05:29:31.781Z,8.85
2023-05-02T05:32:00.536Z,8.85
2023-05-02T05:34:32.027Z,8.98
2023-05-02T05:37:01.651Z,9.05
2023-05-02T05:39:29.467Z,9.09
2023-05-02T05:41:59.095Z,9.17
2023-05-02T05:44:27.208Z,9.23
2023-05-02T05:46:54.789Z,9.30
2023-05-02T05:49:24.487Z,9.38
2023-05-02T05:51:52.566Z,9.49
2023-05-02T05:54:20.387Z,9.58
2023-05-02T05:56:48.375Z,9.64
2023-05-02T05:59:18.911Z,9.71
2023-05-02T06:01:46.485Z,9.81
2023-05-02T06:04:16.065Z,9.96
2023-05-02T06:06:47.246Z,10.06
2023-05-02T06:09:14.885Z,10.07
2023-05-02T06:11:43.010Z,10.19
2023-05-02T06:14:11.125Z,10.33
2023-05-02T06:16:39.177Z,10.33
2023-05-02T06:19:07.082Z,10.44
2023-05-02T06:21:36.993Z,10.47
2023-05-02T06:24:05.217Z,10.61
2023-05-02T06:26:32.960Z,10.64
2023-05-02T06:29:01.449Z,10.71
2023-05-02T06:31:29.373Z,10.81
2023-05-02T06:33:56.994Z,10.88
2023-05-02T06:36:24.493Z,10.96
2023-05-02T06:38:52.010Z,11.06
2023-05-02T06:41:20.805Z,11.14
2023-05-02T06:43:48.237Z,11.20
2023-05-02T06:46:15.985Z,11.26
2023-05-02T06:48:43.585Z,11.30
2023-05-02T06:51:11.386Z,11.40
2023-05-02T06:53:38.921Z,11.45
2023-05-02T06:56:06.733Z,11.52
2023-05-02T06:58:34.639Z,11.65
2023-05-02T07:01:02.193Z,11.83
2023-05-02T07:03:30.015Z,11.91
2023-05-02T07:05:58.124Z,12.04
2023-05-02T07:08:25.706Z,12.17
2023-05-02T07:10:53.237Z,12.24
2023-05-02T07:13:20.783Z,12.40
2023-05-02T07:15:49.648Z,12.56
2023-05-02T07:18:17.205Z,12.70
2023-05-02T07:20:44.850Z,12.74
2023-05-02T07:23:12.697Z,12.81
2023-05-02T07:25:40.625Z,12.89
2023-05-02T07:28:08.797Z,12.97
2023-05-02T07:30:36.304Z,12.91
2023-05-02T07:33:03.991Z,13.11
2023-05-02T07:35:31.744Z,13.25
2023-05-02T07:37:59.232Z,13.37
2023-05-02T07:40:26.834Z,13.42
2023-05-02T07:42:54.459Z,13.42
2023-05-02T07:45:22.008Z,13.38
2023-05-02T07:47:49.578Z,13.39
2023-05-02T07:50:17.189Z,13.54
2023-05-02T07:52:44.864Z,13.71
2023-05-02T07:55:12.810Z,13.75
2023-05-02T07:57:40.358Z,13.88
2023-05-02T08:00:10.252Z,13.95
2023-05-02T08:02:44.404Z,13.64
2023-05-02T08:05:12.392Z,13.70
2023-05-02T08:07:40.723Z,13.67
2023-05-02T08:10:08.776Z,13.70
2023-05-02T08:12:41.464Z,13.56
2023-05-02T08:15:12.436Z,13.76
2023-05-02T08:17:40.523Z,13.94
2023-05-02T08:20:09.589Z,13.89
2023-05-02T08:22:37.132Z,13.90
2023-05-02T08:25:05.021Z,13.99
2023-05-02T08:27:32.770Z,14.18
2023-05-02T08:30:01.238Z,14.10
2023-05-02T08:32:30.223Z,14.13
2023-05-02T08:34:57.805Z,14.17
2023-05-02T08:37:25.916Z,14.01
2023-05-02T08:39:53.454Z,14.14
2023-05-02T08:42:21.870Z,14.34
2023-05-02T08:44:50.003Z,14.11
2023-05-02T08:47:19.049Z,14.10
2023-05-02T08:49:47.205Z,14.23
2023-05-02T08:52:15.793Z,14.49
2023-05-02T08:54:44.660Z,14.63
2023-05-02T08:57:12.191Z,14.79
2023-05-02T08:59:39.734Z,14.74
2023-05-02T09:02:39.739Z,14.77
2023-05-02T09:05:08.084Z,14.67
2023-05-02T09:07:45.856Z,14.63
2023-05-02T09:10:14.912Z,14.71
2023-05-02T09:12:42.784Z,14.86
2023-05-02T09:15:12.479Z,15.02
2023-05-02T09:17:45.132Z,14.92
2023-05-02T09:20:14.466Z,14.87
2023-05-02T09:22:52.294Z,14.68
2023-05-02T09:25:21.355Z,14.81
2023-05-02T09:27:54.307Z,14.88
2023-05-02T09:30:23.402Z,14.93
2023-05-02T09:32:52.289Z,14.98
2023-05-02T09:35:23.913Z,14.95
2023-05-02T09:37:58.712Z,14.84
2023-05-02T09:40:27.643Z,14.86
2023-05-02T09:42:56.238Z,14.91
2023-05-02T09:45:25.747Z,15.09
2023-05-02T09:47:53.777Z,15.26
2023-05-02T09:50:35.118Z,15.42
2023-05-02T09:53:07.688Z,15.32
2023-05-02T09:55:36.234Z,15.14
2023-05-02T09:58:04.157Z,15.02
2023-05-02T10:00:42.657Z,15.03
2023-05-02T10:03:11.472Z,15.02
2023-05-02T10:05:40.538Z,15.19
2023-05-02T10:08:10.206Z,15.54
2023-05-02T10:10:38.765Z,15.37
2023-05-02T10:13:08.578Z,15.40
2023-05-02T10:15:43.638Z,15.38
2023-05-02T10:18:18.293Z,15.25
2023-05-02T10:20:59.264Z,15.10
2023-05-02T10:23:28.478Z,15.20
2023-05-02T10:26:00.044Z,15.29
2023-05-02T10:28:28.613Z,15.45
2023-05-02T10:30:56.360Z,15.51
2023-05-02T10:33:24.239Z,15.69
2023-05-02T10:35:52.043Z,15.60
2023-05-02T10:38:24.854Z,15.51
2023-05-02T10:41:02.191Z,15.60
2023-05-02T10:43:34.293Z,15.74
2023-05-02T10:46:05.661Z,15.63
2023-05-02T10:48:34.443Z,15.74
2023-05-02T10:51:02.174Z,15.78
2023-05-02T10:53:29.710Z,15.88
2023-05-02T10:56:17.521Z,15.85
2023-05-02T10:58:46.576Z,15.86
2023-05-02T11:01:27.309Z,15.70
2023-05-02T11:03:58.991Z,15.92
2023-05-02T11:06:28.954Z,15.93
2023-05-02T11:09:22.069Z,15.86
2023-05-02T11:11:52.538Z,16.13
2023-05-02T11:14:26.119Z,16.21
2023-05-02T11:17:05.516Z,16.36
2023-05-02T11:19:39.255Z,16.22
2023-05-02T11:22:23.976Z,16.42
2023-05-02T11:24:51.646Z,16.49
2023-05-02T11:27:31.996Z,16.50
2023-05-02T11:30:02.230Z,16.37
2023-05-02T11:33:05.324Z,16.23
2023-05-02T11:35:35.946Z,16.46
2023-05-02T11:38:05.724Z,16.66
2023-05-02T11:40:33.353Z,16.55
2023-05-02T11:43:11.822Z,16.36
2023-05-02T11:45:42.682Z,16.32
2023-05-02T11:48:13.795Z,16.48
2023-05-02T11:50:49.650Z,16.44
2023-05-02T11:53:24.097Z,16.53
2023-05-02T11:55:56.745Z,16.62
2023-05-02T11:58:26.378Z,16.68
2023-05-02T12:00:54.246Z,16.60
2023-05-02T12:03:24.747Z,16.50
2023-05-02T12:05:52.915Z,16.53
2023-05-02T12:08:28.399Z,16.67
2023-05-02T12:10:58.297Z,16.71
2023-05-02T12:13:26.929Z,16.55
2023-05-02T12:15:55.176Z,16.57
2023-05-02T12:18:24.488Z,16.73
2023-05-02T12:20:53.393Z,16.78
2023-05-02T12:23:22.578Z,16.90
2023-05-02T12:25:50.390Z,16.95
2023-05-02T12:28:24.066Z,16.94
2023-05-02T12:30:52.266Z,16.73
2023-05-02T12:33:20.171Z,16.85
2023-05-02T12:35:48.256Z,16.84
2023-05-02T12:38:23.597Z,16.85
2023-05-02T12:40:57.750Z,17.01
2023-05-02T12:43:25.451Z,17.18
2023-05-02T12:46:09.925Z,16.96
2023-05-02T12:48:37.580Z,17.22
2023-05-02T12:51:05.415Z,17.07
2023-05-02T12:53:43.729Z,16.88
2023-05-02T12:56:11.866Z,16.81
2023-05-02T12:58:46.743Z,16.93
2023-05-02T13:01:15.754Z,16.98
2023-05-02T13:03:44.494Z,17.03
2023-05-02T13:06:12.037Z,17.16
2023-05-02T13:08:39.658Z,17.32
2023-05-02T13:11:07.174Z,17.22
2023-05-02T13:13:35.682Z,17.18
2023-05-02T13:16:03.961Z,17.18
2023-05-02T13:18:31.651Z,17.10
2023-05-02T13:20:59.179Z,16.86
2023-05-02T13:23:26.694Z,17.07
2023-05-02T13:25:54.218Z,17.21
2023-05-02T13:28:21.832Z,17.16
2023-05-02T13:30:49.397Z,17.16
2023-05-02T13:33:18.016Z,17.18
2023-05-02T13:35:45.556Z,17.13
2023-05-02T13:38:13.173Z,17.21
2023-05-02T13:40:40.822Z,17.36
2023-05-02T13:43:08.645Z,17.18
2023-05-02T13:45:36.245Z,17.11
2023-05-02T13:48:04.009Z,17.13
2023-05-02T13:50:31.753Z,17.06
2023-05-02T13:52:59.260Z,16.81
2023-05-02T13:55:26.989Z,16.91
2023-05-02T13:57:54.488Z,16.97
2023-05-02T14:00:21.998Z,17.09
2023-05-02T14:02:49.613Z,17.26
2023-05-02T14:05:17.199Z,17.24
2023-05-02T14:07:44.861Z,17.13
2023-05-02T14:10:12.396Z,17.07
2023-05-02T14:12:40.437Z,17.24
2023-05-02T14:15:08.679Z,17.49
2023-05-02T14:17:36.560Z,17.50
2023-05-02T14:20:04.602Z,17.65
2023-05-02T14:22:33.599Z,17.60
2023-05-02T14:25:01.092Z,17.81
2023-05-02T14:27:28.766Z,18.02
2023-05-02T14:29:56.356Z,17.88
2023-05-02T14:32:23.896Z,17.74
2023-05-02T14:34:51.482Z,17.63
2023-05-02T14:37:18.951Z,17.55
2023-05-02T14:39:58.195Z,17.68
2023-05-02T14:42:26.084Z,17.81
2023-05-02T14:44:53.694Z,17.61
2023-05-02T14:47:21.504Z,17.73
2023-05-02T14:49:49.106Z,18.04
2023-05-02T14:52:16.614Z,18.04
2023-05-02T14:54:44.135Z,18.28
2023-05-02T14:57:11.693Z,18.32
2023-05-02T14:59:40.346Z,18.28
2023-05-02T15:02:08.011Z,18.17
2023-05-02T15:04:35.947Z,18.42
2023-05-02T15:07:04.525Z,18.79
2023-05-02T15:09:33.275Z,19.00
2023-05-02T15:12:00.849Z,19.02
2023-05-02T15:14:28.572Z,19.36
2023-05-02T15:16:56.323Z,19.89
2023-05-02T15:19:25.255Z,20.18
2023-05-02T15:21:57.665Z,20.33
2023-05-02T15:24:25.750Z,20.42
2023-05-02T15:26:53.346Z,20.10
2023-05-02T15:29:20.963Z,20.57
2023-05-02T15:31:48.534Z,21.11
2023-05-02T15:34:16.425Z,21.40
2023-05-02T15:36:43.941Z,21.46
2023-05-02T15:39:11.445Z,21.07
2023-05-02T15:41:39.053Z,20.30
2023-05-02T15:44:06.719Z,19.98
2023-05-02T15:46:34.233Z,20.19
2023-05-02T15:49:01.888Z,21.09
2023-05-02T15:51:29.757Z,20.98
2023-05-02T15:53:57.913Z,19.59
2023-05-02T15:56:25.492Z,18.55
2023-05-02T15:58:53.074Z,17.85
2023-05-02T16:01:21.488Z,17.44
2023-05-02T16:03:49.161Z,17.12
2023-05-02T16:06:17.584Z,16.79
2023-05-02T16:08:45.401Z,16.61
2023-05-02T16:11:12.933Z,16.49
2023-05-02T16:13:40.776Z,16.39
2023-05-02T16:16:08.288Z,16.35
2023-05-02T16:18:36.348Z,16.23
2023-05-02T16:21:03.999Z,16.04
2023-05-02T16:23:31.865Z,15.86
2023-05-02T16:26:00.669Z,15.80
2023-05-02T16:28:28.578Z,15.76
2023-05-02T16:30:56.331Z,15.75
2023-05-02T16:33:24.054Z,15.59
2023-05-02T16:36:01.812Z,15.56
2023-05-02T16:38:29.928Z,15.53
2023-05-02T16:40:57.651Z,15.50
2023-05-02T16:43:25.196Z,15.39
2023-05-02T16:46:06.681Z,15.37
2023-05-02T16:48:35.271Z,15.28
2023-05-02T16:51:04.208Z,15.21
2023-05-02T16:53:32.288Z,15.16
2023-05-02T16:56:00.055Z,15.10
2023-05-02T16:58:30.383Z,15.08
2023-05-02T17:01:00.640Z,14.91
2023-05-02T17:03:29.701Z,14.85
2023-05-02T17:06:01.861Z,14.77
2023-05-02T17:08:30.762Z,14.80
2023-05-02T17:10:58.446Z,14.83
2023-05-02T17:13:26.126Z,14.72
2023-05-02T17:15:53.805Z,14.65
2023-05-02T17:18:22.071Z,14.62
2023-05-02T17:20:50.060Z,14.60
2023-05-02T17:23:17.819Z,14.51
2023-05-02T17:25:45.426Z,14.50
2023-05-02T17:28:13.076Z,14.50
2023-05-02T17:30:40.769Z,14.45
2023-05-02T17:33:08.508Z,14.40
2023-05-02T17:35:36.027Z,14.36
2023-05-02T17:38:03.580Z,14.31
2023-05-02T17:40:31.154Z,14.30
2023-05-02T17:42:59.410Z,14.27
2023-05-02T17:45:29.016Z,14.24
2023-05-02T17:47:56.858Z,14.19
2023-05-02T17:50:24.514Z,14.14
2023-05-02T17:52:52.183Z,14.12
2023-05-02T17:55:19.915Z,14.03
2023-05-02T17:57:48.583Z,14.01
2023-05-02T18:00:16.409Z,13.92
2023-05-02T18:02:44.459Z,13.90
2023-05-02T18:05:12.434Z,13.84
2023-05-02T18:07:40.663Z,13.81
2023-05-02T18:10:08.658Z,13.80
2023-05-02T18:12:36.437Z,13.75
2023-05-02T18:15:05.890Z,13.74
2023-05-02T18:17:34.474Z,13.69
2023-05-02T18:20:04.491Z,13.62
2023-05-02T18:22:33.917Z,13.60
2023-05-02T18:25:01.943Z,13.51
2023-05-02T18:27:30.269Z,13.49
2023-05-02T18:29:57.794Z,13.38
2023-05-02T18:32:26.261Z,13.38
2023-05-02T18:34:53.834Z,13.35
2023-05-02T18:37:22.978Z,13.32
2023-05-02T18:39:50.532Z,13.35
2023-05-02T18:42:18.086Z,13.24
2023-05-02T18:44:45.638Z,13.15
2023-05-02T18:47:14.034Z,12.98
2023-05-02T18:49:41.689Z,12.81
2023-05-02T18:52:09.211Z,12.57
2023-05-02T18:54:37.052Z,12.51
2023-05-02T18:57:05.226Z,12.48
2023-05-02T18:59:32.953Z,12.50
2023-05-02T19:02:01.049Z,12.39
2023-05-02T19:04:32.182Z,12.30
2023-05-02T19:07:00.181Z,12.23
2023-05-02T19:09:27.695Z,12.15
2023-05-02T19:11:55.353Z,12.03
2023-05-02T19:14:23.055Z,11.89
2023-05-02T19:16:51.038Z,11.76
2023-05-02T19:19:18.783Z,11.88
2023-05-02T19:21:48.100Z,11.93
2023-05-02T19:24:16.864Z,11.78
2023-05-02T19:26:44.508Z,11.77
2023-05-02T19:29:11.947Z,11.75
2023-05-02T19:31:40.086Z,11.66
2023-05-02T19:34:07.590Z,11.58
2023-05-02T19:36:35.313Z,11.59
2023-05-02T19:39:02.951Z,11.60
2023-05-02T19:41:30.967Z,11.54
2023-05-02T19:44:00.138Z,11.50
2023-05-02T19:46:30.264Z,11.44
2023-05-02T19:48:59.174Z,11.27
2023-05-02T19:51:28.240Z,11.32
2023-05-02T19:53:58.717Z,11.31
2023-05-02T19:56:27.460Z,11.22
2023-05-02T19:58:58.626Z,11.19
2023-05-02T20:01:29.050Z,11.22
2023-05-02T20:03:57.086Z,11.10
2023-05-02T20:06:24.859Z,10.99
2023-05-02T20:08:53.072Z,11.06
2023-05-02T20:11:21.537Z,11.14
2023-05-02T20:13:49.257Z,11.23
2023-05-02T20:16:16.979Z,11.16
2023-05-02T20:18:44.440Z,11.09
2023-05-02T20:21:12.022Z,11.07
2023-05-02T20:23:43.619Z,10.94
2023-05-02T20:26:11.630Z,10.92
2023-05-02T20:28:39.281Z,10.91
2023-05-02T20:31:07.229Z,11.05
2023-05-02T20:33:44.589Z,11.12
2023-05-02T20:36:14.938Z,10.96
2023-05-02T20:38:42.871Z,10.89
2023-05-02T20:41:14.174Z,10.94
2023-05-02T20:43:44.981Z,10.97
2023-05-02T20:46:16.472Z,10.84
2023-05-02T20:48:44.188Z,10.78
2023-05-02T20:51:12.105Z,10.72
2023-05-02T20:53:40.100Z,10.62
2023-05-02T20:56:07.726Z,10.67
2023-05-02T20:58:35.521Z,10.81
2023-05-02T21:01:03.476Z,10.92
2023-05-02T21:03:32.172Z,11.08
2023-05-02T21:05:59.820Z,11.11
2023-05-02T21:08:27.583Z,11.14
2023-05-02T21:10:55.621Z,11.11
2023-05-02T21:13:23.162Z,11.11
2023-05-02T21:15:50.839Z,11.13
2023-05-02T21:18:18.416Z,11.05
2023-05-02T21:20:48.621Z,11.02
2023-05-02T21:23:16.785Z,11.00
2023-05-02T21:25:44.319Z,10.95
2023-05-02T21:28:12.637Z,10.88
2023-05-02T21:30:40.124Z,10.84
2023-05-02T21:33:07.766Z,10.88
2023-05-02T21:35:35.397Z,10.88
2023-05-02T21:38:02.932Z,10.87
2023-05-02T21:40:31.962Z,10.84
2023-05-02T21:42:59.607Z,10.83
2023-05-02T21:45:27.342Z,10.88
2023-05-02T21:47:54.909Z,10.85
2023-05-02T21:50:23.230Z,10.86
2023-05-02T21:52:50.711Z,10.81
2023-05-02T21:55:18.197Z,10.79
2023-05-02T21:57:45.670Z,10.70
2023-05-02T22:00:13.541Z,10.76
2023-05-02T22:02:41.765Z,10.66
2023-05-02T22:05:09.631Z,10.61
2023-05-02T22:07:37.868Z,10.63
2023-05-02T22:10:06.741Z,10.64
2023-05-02T22:12:34.661Z,10.55
2023-05-02T22:15:07.533Z,10.55
2023-05-02T22:17:35.629Z,10.61
2023-05-02T22:20:04.037Z,10.58
2023-05-02T22:22:32.073Z,10.55
2023-05-02T22:24:59.701Z,10.46
2023-05-02T22:27:27.216Z,10.47
2023-05-02T22:29:56.301Z,10.51
2023-05-02T22:32:23.906Z,10.44
2023-05-02T22:34:51.475Z,10.40
2023-05-02T22:37:18.920Z,10.41
2023-05-02T22:39:46.331Z,10.36
2023-05-02T22:42:13.926Z,10.42
2023-05-02T22:44:53.066Z,10.41
2023-05-02T22:47:24.181Z,10.41
2023-05-02T22:49:52.662Z,10.33
2023-05-02T22:52:20.825Z,10.29
2023-05-02T22:54:48.521Z,10.23
2023-05-02T22:57:16.068Z,10.20
2023-05-02T22:59:43.597Z,10.25
2023-05-02T23:02:14.290Z,10.25
2023-05-02T23:04:41.931Z,10.19
2023-05-02T23:07:09.587Z,10.20
2023-05-02T23:09:37.214Z,10.19
2023-05-02T23:12:05.783Z,10.12
2023-05-02T23:14:33.891Z,10.11
2023-05-02T23:17:02.854Z,10.10
2023-05-02T23:19:30.762Z,10.15
2023-05-02T23:21:59.364Z,10.14
2023-05-02T23:24:26.874Z,10.09
2023-05-02T23:26:54.987Z,10.11
2023-05-02T23:29:23.140Z,10.10
2023-05-02T23:31:52.610Z,10.03
2023-05-02T23:34:21.538Z,10.03
2023-05-02T23:36:49.495Z,10.02
2023-05-02T23:39:17.206Z,9.98
2023-05-02T23:41:44.821Z,9.91
2023-05-02T23:44:12.362Z,9.90
2023-05-02T23:46:40.064Z,9.91
2023-05-02T23:49:07.560Z,9.94
2023-05-02T23:51:37.804Z,9.91
2023-05-02T23:54:05.428Z,9.87
2023-05-02T23:56:33.190Z,9.84
2023-05-02T23:59:01.098Z,9.91
